Latest Coastal Weather Observations for Port Fairy

IDV60701

Issued at 4:25 am EST Thursday 21 August 2014 (issued every 10 minutes, with the page automatically refreshed every 10 minutes)

About coastal observations | Map of coastal stations | Coastal observations for VIC | Marine services | Other Formats
Station Details ID: 090175 Name: PORT FAIRY AWS Lat: -38.39 Lon: 142.23 Height: 10.0 m
Data from the previous 72 hours. | See also: Recent months at Port Fairy
Date/Time
EST
Temp

°C
Wind Pressure Rain
since 9am
mm
Weather Cloud Vis
km
Sea
Height
m
Swell
Dir
 
Speed
knots
Gust
knots
hPa Trend Height
m
Period
s
Dir
21/04:00am 7.4 N 3 4 1028.1 - 0.0 - - - - - - -
21/03:30am 7.2 N 1 2 1028.1 - 0.0 - - - - - - -
21/03:00am 6.8 NNE 1 2 1028.2 - 0.0 - - - - - - -
21/02:30am 6.5 NNE 2 4 1028.4 - 0.0 - - - - - - -
21/02:00am 6.9 N 2 3 1028.6 - 0.0 - - - - - - -
21/01:30am 8.6 N 1 3 1028.6 - 0.0 - - - - - - -
21/01:00am 8.8 NNE 3 6 1028.6 - 0.0 - - - - - - -
21/12:30am 8.4 NNE 2 4 1028.6 - 0.0 - - - - - - -
21/12:00am 9.9 E 5 7 1028.5 - 0.0 - - - - - - -
 
Date/Time
EST
Temp

°C
Wind Pressure Rain
since 9am
mm
Weather Cloud Vis
km
Sea
Height
m
Swell
Dir
 
Speed
knots
Gust
knots
hPa Trend Height
m
Period
s
Dir
20/11:30pm 10.1 ESE 6 8 1028.5 - 0.0 - - - - - - -
20/11:00pm 9.6 ESE 5 6 1028.5 - 0.0 - - - - - - -
20/10:30pm 10.2 ESE 7 11 1028.6 - 0.0 - - - - - - -
20/10:00pm 10.1 E 5 8 1028.6 - 0.0 - - - - - - -
20/09:30pm 10.2 E 5 8 1028.7 - 0.0 - - - - - - -
20/09:00pm 9.6 SE 4 6 1028.7 - 0.0 - - - - - - -
20/08:30pm 9.7 SE 4 5 1028.7 - 0.0 - - - - - - -
20/08:00pm 9.6 SSE 4 5 1028.6 - 0.0 - - - - - - -
20/07:30pm 9.3 SE 4 6 1028.6 - 0.0 - - - - - - -
20/07:00pm 9.7 SE 4 6 1028.6 - 0.0 - - - - - - -
20/06:30pm 9.8 SE 5 7 1028.5 - 0.0 - - - - - - -
20/06:00pm 10.6 SSE 5 6 1028.3 - 0.0 - - - - - - -
20/05:30pm 11.5 SSE 4 6 1028.2 - 0.0 - - - - - - -
20/05:00pm 11.6 SSE 4 6 1028.0 - 0.0 - - - - - - -
20/04:30pm 11.6 S 7 10 1027.8 - 0.0 - - - - - - -
20/04:00pm 12.1 S 10 13 1027.8 - 0.0 - - - - - - -
20/03:30pm 13.2 SSE 6 8 1027.7 - 0.0 - - - - - - -
20/03:00pm 13.3 SSE 5 8 1027.4 - 0.0 - - - - - - -
20/02:30pm 13.5 SSE 5 7 1027.4 - 0.0 - - - - - - -
20/02:00pm 13.3 SE 5 8 1027.4 - 0.0 - - - - - - -
20/01:30pm 13.0 S 4 8 1027.6 - 0.0 - - - - - - -
20/01:00pm 13.4 S 4 6 1027.8 - 0.0 - - - - - - -
20/12:30pm 12.5 S 4 6 1028.0 - 0.0 - - - - - - -
20/12:00pm 12.5 SSE 6 8 1028.2 - 0.0 - - - - - - -
20/11:30am 13.6 SE 8 11 1028.4 - 0.0 - - - - - - -
20/11:00am 13.0 SE 5 8 1028.4 - 0.0 - - - - - - -
20/10:30am 12.3 ESE 5 10 1028.3 - 0.0 - - - - - - -
20/10:00am 11.9 SE 5 8 1028.3 - 0.0 - - - - - - -
20/09:30am 11.6 SSE 8 11 1028.1 - 0.0 - - - - - - -
20/09:00am 11.4 SSE 7 10 1027.9 - 0.0 - - - - - - -
20/08:30am 11.2 SSE 7 12 1027.7 - 0.0 - - - - - - -
20/08:00am 11.0 SE 7 13 1027.4 - 0.0 - - - - - - -
20/07:30am 11.0 S 8 10 1027.1 - 0.0 - - - - - - -
20/07:00am 10.8 S 10 14 1026.9 - 0.0 - - - - - - -
20/06:30am 10.6 S 9 14 1026.6 - 0.0 - - - - - - -
20/06:00am 10.7 S 8 11 1026.4 - 0.0 - - - - - - -
20/05:30am 10.3 S 10 14 1026.3 - 0.0 - - - - - - -
20/05:00am 8.6 N 2 4 1026.3 - 0.0 - - - - - - -
20/04:30am 8.6 N 2 3 1026.3 - 0.0 - - - - - - -
20/04:00am 8.5 NNW 3 4 1026.4 - 0.0 - - - - - - -
20/03:30am 8.5 N 1 4 1026.4 - 0.0 - - - - - - -
20/03:00am 8.4 NNW 3 4 1026.5 - 0.0 - - - - - - -
20/02:30am 8.6 N 3 4 1026.6 - 0.0 - - - - - - -
20/02:00am 8.6 NNW 2 3 1026.7 - 0.0 - - - - - - -
20/01:30am 8.7 N 2 3 1026.7 - 0.0 - - - - - - -
20/01:00am 8.7 NNW 3 4 1026.8 - 0.0 - - - - - - -
20/12:30am 9.0 CALM 0 2 1026.9 - 0.0 - - - - - - -
20/12:00am 8.9 WNW 1 3 1026.9 - 0.0 - - - - - - -
 
Date/Time
EST
Temp

°C
Wind Pressure Rain
since 9am
mm
Weather Cloud Vis
km
Sea
Height
m
Swell
Dir
 
Speed
knots
Gust
knots
hPa Trend Height
m
Period
s
Dir
19/11:30pm 9.5 NNE 1 2 1026.9 - 0.0 - - - - - - -
19/11:00pm 10.1 ESE 2 8 1027.0 - 0.0 - - - - - - -
19/10:30pm 9.7 SSW 9 16 1027.2 - 0.0 - - - - - - -
19/10:00pm 9.5 CALM 0 2 1027.1 - 0.0 - - - - - - -
19/09:30pm 10.2 W 2 3 1027.1 - 0.0 - - - - - - -
19/09:00pm 10.7 S 5 6 1027.1 - 0.0 - - - - - - -
19/08:30pm 11.1 SSW 6 10 1026.9 - 0.0 - - - - - - -
19/08:00pm 11.3 SSE 6 10 1026.7 - 0.0 - - - - - - -
19/07:30pm 11.6 S 6 10 1026.6 - 0.0 - - - - - - -
19/07:00pm 11.6 S 4 7 1026.5 - 0.0 - - - - - - -
19/06:30pm 11.5 SSE 6 8 1026.2 - 0.0 - - - - - - -
19/06:00pm 11.5 SSE 8 11 1025.9 - 0.0 - - - - - - -
19/05:30pm 11.5 SSE 6 9 1025.8 - 0.0 - - - - - - -
19/05:00pm 11.9 SSE 9 12 1025.4 - 0.0 - - - - - - -
19/04:30pm 11.9 SSE 8 10 1025.4 - 0.0 - - - - - - -
19/04:00pm 12.3 SSE 8 13 1025.3 - 0.0 - - - - - - -
19/03:30pm 12.7 SSE 5 8 1025.5 - 0.0 - - - - - - -
19/03:00pm 12.9 SSE 6 8 1025.4 - 0.0 - - - - - - -
19/02:30pm 13.1 S 6 10 1025.2 - 0.0 - - - - - - -
19/02:00pm 12.5 S 7 10 1025.2 - 0.0 - - - - - - -
19/01:30pm 12.2 S 8 12 1025.4 - 0.0 - - - - - - -
19/01:00pm 12.6 SSE 6 9 1025.8 - 0.0 - - - - - - -
19/12:30pm 12.4 SSE 8 10 1026.1 - 0.0 - - - - - - -
19/12:00pm 12.3 S 6 10 1026.5 - 0.0 - - - - - - -
19/11:30am 11.6 S 3 5 1026.6 - 0.0 - - - - - - -
19/11:00am 11.7 ESE 6 9 1026.7 - 0.0 - - - - - - -
19/10:30am 12.0 SE 9 13 1026.7 - 0.0 - - - - - - -
19/10:00am 12.2 SSE 11 14 1026.5 - 0.0 - - - - - - -
19/09:30am 11.8 S 9 13 1026.4 - 0.0 - - - - - - -
19/09:00am 11.8 S 9 12 1026.1 - 0.2 - - - - - - -
19/08:30am 11.5 S 9 13 1026.0 - 0.2 - - - - - - -
19/08:00am 11.5 S 11 14 1025.7 - 0.2 - - - - - - -
19/07:30am 11.2 SSE 11 14 1025.3 - 0.2 - - - - - - -
19/07:00am 11.2 SSE 10 13 1025.1 - 0.2 - - - - - - -
19/06:30am 11.1 SSE 11 16 1024.8 - 0.2 - - - - - - -
19/06:00am 11.1 SSE 13 16 1024.7 - 0.2 - - - - - - -
19/05:30am 11.6 S 10 13 1024.6 - 0.2 - - - - - - -
19/05:00am 11.2 SSE 9 11 1024.4 - 0.2 - - - - - - -
19/04:30am 11.3 S 10 13 1024.4 - 0.2 - - - - - - -
19/04:00am 11.2 S 12 15 1024.2 - 0.2 - - - - - - -
19/03:30am 11.3 SSE 11 15 1024.3 - 0.2 - - - - - - -
19/03:00am 11.3 SSE 12 16 1024.4 - 0.2 - - - - - - -
19/02:30am 11.2 SSE 12 16 1024.6 - 0.2 - - - - - - -
19/02:00am 11.3 S 11 17 1024.6 - 0.2 - - - - - - -
19/01:30am 11.5 S 13 16 1024.6 - 0.2 - - - - - - -
19/01:00am 11.4 S 13 18 1024.7 - 0.2 - - - - - - -
19/12:30am 11.5 S 11 15 1024.8 - 0.2 - - - - - - -
19/12:00am 11.3 SSE 9 13 1024.8 - 0.2 - - - - - - -
 
Date/Time
EST
Temp

°C
Wind Pressure Rain
since 9am
mm
Weather Cloud Vis
km
Sea
Height
m
Swell
Dir
 
Speed
knots
Gust
knots
hPa Trend Height
m
Period
s
Dir
18/11:30pm 11.6 S 11 15 1024.9 - 0.2 - - - - - - -
18/11:00pm 11.0 SSE 11 13 1024.9 - 0.2 - - - - - - -
18/10:30pm 11.4 S 9 13 1024.9 - 0.0 - - - - - - -
18/10:00pm 11.8 S 10 15 1024.9 - 0.0 - - - - - - -
18/09:30pm 11.7 S 9 12 1024.9 - 0.0 - - - - - - -
18/09:00pm 11.3 SSE 10 12 1024.8 - 0.0 - - - - - - -
18/08:30pm 11.5 S 10 15 1024.5 - 0.0 - - - - - - -
18/08:00pm 11.7 S 9 12 1024.3 - 0.0 - - - - - - -
18/07:30pm 11.8 SSE 11 14 1024.1 - 0.0 - - - - - - -
18/07:00pm 11.2 SSE 10 14 1023.7 - 0.0 - - - - - - -
18/06:30pm 11.1 SSE 11 13 1023.5 - 0.0 - - - - - - -
18/06:00pm 10.9 SSE 10 12 1023.3 - 0.0 - - - - - - -
18/05:30pm 11.1 SSE 9 13 1023.1 - 0.0 - - - - - - -
18/05:00pm 11.9 SSE 10 13 1022.9 - 0.0 - - - - - - -
18/04:30pm 12.2 S 9 13 1022.7 - 0.0 - - - - - - -
18/04:00pm 12.3 SSE 12 15 1022.7 - 0.0 - - - - - - -
18/03:30pm 12.7 SSE 12 15 1022.6 - 0.0 - - - - - - -
18/03:00pm 12.4 S 10 14 1022.7 - 0.0 - - - - - - -
18/02:30pm 12.8 S 10 14 1022.6 - 0.0 - - - - - - -
18/02:00pm 12.7 S 12 16 1022.7 - 0.0 - - - - - - -
18/01:30pm 12.7 SSE 12 16 1022.8 - 0.0 - - - - - - -
18/01:00pm 12.6 SSE 11 15 1023.1 - 0.0 - - - - - - -
18/12:30pm 12.9 S 10 14 1023.3 - 0.0 - - - - - - -
18/12:00pm 12.3 S 10 14 1023.7 - 0.0 - - - - - - -
18/11:30am 12.5 SSE 9 14 1024.0 - 0.0 - - - - - - -
18/11:00am 12.5 SSE 11 15 1023.9 - 0.0 - - - - - - -
18/10:30am 12.0 SSE 10 14 1023.9 - 0.0 - - - - - - -
18/10:00am 11.5 SE 12 15 1023.8 - 0.0 - - - - - - -
18/09:30am 11.3 S 11 14 1023.8 - 0.0 - - - - - - -
18/09:00am 11.0 SSE 13 17 1023.7 - 0.0 - - - - - - -
18/08:30am 11.0 SSE 12 15 1023.5 - 0.0 - - - - - - -
18/08:00am 10.9 SE 13 18 1023.5 - 0.0 - - - - - - -
18/07:30am 10.8 SSE 14 19 1023.4 - 0.0 - - - - - - -
18/07:00am 10.8 SSE 14 18 1023.1 - 0.0 - - - - - - -
18/06:30am 10.9 SSE 12 19 1022.9 - 0.0 - - - - - - -
18/06:00am 11.1 SSE 11 18 1022.6 - 0.0 - - - - - - -
18/05:30am 11.2 S 13 19 1022.4 - 0.0 - - - - - - -
18/05:00am 11.3 SSE 13 18 1022.2 - 0.0 - - - - - - -
18/04:30am 11.2 SSE 10 17 1022.0 - 0.0 - - - - - - -

Other Formats:

Comma delimited format used in spreadsheet applications
http://www.bom.gov.au/fwo/IDV60701/IDV60701.94830.axf

JavaScript Object Notation format (JSON) in row-major order
http://www.bom.gov.au/fwo/IDV60701/IDV60701.94830.json